Time;durP1;ratioP1;P1;durP2;ratioP2;P2;SDS_P1;SDS_P2;PMS_P1;PMS_P2;Temp;Humidity;BMP_temperature;BMP_pressure;BME280_temperature;BME280_humidity;BME280_pressure;Samples;Min_cycle;Max_cycle;Signal;HPM_P1;HPM_P2
2021/03/10 00:00:54;;;;;;;;;;;23.50;99.90;;;;;;4935875;29;19977;-80
2021/03/10 00:03:21;;;;;;;;;;;23.40;99.90;;;;;;4936434;29;20445;-82
2021/03/10 00:05:48;;;;;;;;;;;23.50;99.90;;;;;;4936911;29;19911;-79
2021/03/10 00:08:17;;;;;;;;;;;23.50;99.90;;;;;;4935884;29;20365;-81
2021/03/10 00:10:45;;;;;;;;;;;23.50;99.90;;;;;;4936595;29;19919;-81
2021/03/10 00:13:12;;;;;;;;;;;23.50;99.90;;;;;;4932889;29;19946;-82
2021/03/10 00:15:40;;;;;;;;;;;23.50;99.90;;;;;;4937405;29;20425;-82
2021/03/10 00:18:06;;;;;;;;;;;23.60;99.90;;;;;;4939411;29;19915;-81
2021/03/10 00:20:34;;;;;;;;;;;23.70;99.90;;;;;;4938623;29;19911;-84
2021/03/10 00:23:01;;;;;;;;;;;23.70;99.90;;;;;;4935803;29;19993;-82
2021/03/10 00:25:28;;;;;;;;;;;23.80;99.90;;;;;;4935442;29;19934;-82
2021/03/10 00:27:54;;;;;;;;;;;23.80;99.90;;;;;;4934515;29;19919;-81
2021/03/10 00:36:03;;;;;;;;;;;24.00;99.90;;;;;;5152408;23;19930;-77
2021/03/10 00:38:30;;;;;;;;;;;24.00;99.90;;;;;;4978487;28;20385;-81
2021/03/10 00:41:27;;;;;;;;;;;23.90;99.90;;;;;;4974839;28;20284;-80
2021/03/10 00:43:55;;;;;;;;;;;23.70;99.90;;;;;;4977346;28;20018;-81
2021/03/10 00:46:21;;;;;;;;;;;23.80;99.90;;;;;;4983193;28;19921;-81
2021/03/10 00:48:48;;;;;;;;;;;23.90;99.90;;;;;;4973101;28;20009;-79
2021/03/10 00:51:14;;;;;;;;;;;24.10;99.90;;;;;;4973472;28;20280;-80
2021/03/10 00:53:42;;;;;;;;;;;24.30;99.90;;;;;;4974773;28;19954;-79
2021/03/10 00:56:09;;;;;;;;;;;24.40;99.90;;;;;;4974539;28;20320;-79
2021/03/10 00:58:35;;;;;;;;;;;24.50;99.90;;;;;;4987167;28;19928;-82
2021/03/10 01:01:02;;;;;;;;;;;24.80;99.70;;;;;;4994016;28;19953;-78
2021/03/10 01:03:29;;;;;;;;;;;24.80;99.60;;;;;;4994347;28;19937;-78
2021/03/10 01:05:55;;;;;;;;;;;25.00;98.80;;;;;;4993564;28;19910;-79
2021/03/10 01:08:22;;;;;;;;;;;25.00;99.40;;;;;;4995374;28;20260;-80
2021/03/10 01:10:49;;;;;;;;;;;24.90;98.80;;;;;;4983565;28;19960;-79
2021/03/10 01:13:16;;;;;;;;;;;24.80;99.40;;;;;;4976865;28;19953;-79
2021/03/10 01:15:43;;;;;;;;;;;25.00;99.20;;;;;;4983695;28;19936;-79
2021/03/10 01:18:10;;;;;;;;;;;24.90;99.40;;;;;;4983335;28;19917;-80
2021/03/10 01:20:36;;;;;;;;;;;24.80;99.20;;;;;;4981540;28;19917;-83
2021/03/10 01:23:03;;;;;;;;;;;24.40;99.70;;;;;;4983854;28;19926;-83
2021/03/10 01:25:30;;;;;;;;;;;24.30;99.90;;;;;;4982099;28;19918;-81
2021/03/10 01:27:58;;;;;;;;;;;24.30;99.70;;;;;;4980303;28;19914;-83
2021/03/10 01:30:25;;;;;;;;;;;24.20;99.90;;;;;;4981477;28;20296;-83
2021/03/10 01:32:52;;;;;;;;;;;24.10;99.90;;;;;;4983640;28;19997;-82
2021/03/10 01:35:19;;;;;;;;;;;23.90;99.90;;;;;;4987214;28;19928;-83
2021/03/10 01:37:47;;;;;;;;;;;23.90;99.90;;;;;;4993032;28;19910;-83
2021/03/10 01:40:15;;;;;;;;;;;23.70;99.90;;;;;;4993259;28;19910;-85
2021/03/10 01:42:43;;;;;;;;;;;23.80;99.90;;;;;;4991997;28;20361;-83
2021/03/10 01:45:10;;;;;;;;;;;23.80;99.90;;;;;;4992430;28;19910;-82
2021/03/10 01:47:41;;;;;;;;;;;24.00;99.90;;;;;;4988382;28;19917;-83
2021/03/10 01:50:09;;;;;;;;;;;24.10;99.80;;;;;;4984898;28;19933;-82
2021/03/10 01:52:35;;;;;;;;;;;24.20;99.70;;;;;;4981239;28;19914;-84
2021/03/10 01:55:02;;;;;;;;;;;24.30;99.60;;;;;;4990346;28;19910;-83
2021/03/10 01:57:33;;;;;;;;;;;24.10;99.60;;;;;;4991300;28;19940;-81
2021/03/10 02:00:00;;;;;;;;;;;24.20;99.40;;;;;;4977382;28;19914;-82
2021/03/10 02:02:26;;;;;;;;;;;24.40;99.50;;;;;;4976995;28;20041;-80
2021/03/10 02:04:53;;;;;;;;;;;24.70;99.30;;;;;;4977642;28;19910;-82
2021/03/10 02:07:20;;;;;;;;;;;24.70;99.10;;;;;;4977665;28;19921;-81
2021/03/10 02:09:49;;;;;;;;;;;24.60;99.30;;;;;;4977265;28;19958;-84
2021/03/10 02:12:31;;;;;;;;;;;24.60;99.10;;;;;;4975464;28;19917;-81
2021/03/10 02:15:02;;;;;;;;;;;24.60;99.30;;;;;;4976319;28;20004;-82
2021/03/10 02:17:32;;;;;;;;;;;24.60;99.00;;;;;;4977154;28;20387;-82
2021/03/10 02:20:05;;;;;;;;;;;24.50;98.80;;;;;;4976932;28;19921;-81
2021/03/10 02:22:41;;;;;;;;;;;24.20;99.60;;;;;;4975906;28;19921;-81
2021/03/10 02:25:13;;;;;;;;;;;24.20;99.90;;;;;;4984852;28;20001;-79
2021/03/10 02:27:54;;;;;;;;;;;24.20;99.60;;;;;;4988232;28;19942;-82
2021/03/10 02:30:25;;;;;;;;;;;24.20;99.70;;;;;;4992892;28;19917;-82
2021/03/10 02:32:52;;;;;;;;;;;24.20;99.40;;;;;;4986138;28;19941;-81
2021/03/10 02:35:20;;;;;;;;;;;24.40;99.70;;;;;;4988351;28;19922;-81
2021/03/10 02:37:47;;;;;;;;;;;24.70;99.20;;;;;;4981767;28;19959;-82
2021/03/10 02:40:15;;;;;;;;;;;24.90;99.30;;;;;;4977032;28;19917;-76
2021/03/10 02:42:43;;;;;;;;;;;24.80;99.50;;;;;;4975320;28;20537;-80
2021/03/10 02:45:10;;;;;;;;;;;24.70;99.40;;;;;;4976949;28;19949;-83
2021/03/10 02:47:37;;;;;;;;;;;24.60;99.70;;;;;;4975780;28;19917;-77
2021/03/10 02:50:06;;;;;;;;;;;24.80;99.80;;;;;;4980599;28;19926;-79
2021/03/10 02:52:33;;;;;;;;;;;24.80;99.10;;;;;;4984034;28;19973;-78
2021/03/10 02:55:00;;;;;;;;;;;24.80;99.60;;;;;;4979538;28;20010;-78
2021/03/10 02:57:31;;;;;;;;;;;24.60;99.30;;;;;;4976211;28;19918;-83
2021/03/10 03:00:05;;;;;;;;;;;24.50;99.30;;;;;;4974993;28;19972;-77
2021/03/10 03:02:32;;;;;;;;;;;24.50;99.70;;;;;;4994680;28;19913;-85
2021/03/10 03:04:59;;;;;;;;;;;24.50;99.90;;;;;;4990030;28;19965;-80
2021/03/10 03:07:25;;;;;;;;;;;24.60;99.60;;;;;;4976793;28;19910;-85
2021/03/10 03:09:52;;;;;;;;;;;24.80;99.20;;;;;;4985528;28;19929;-81
2021/03/10 03:12:19;;;;;;;;;;;24.90;99.40;;;;;;4991374;28;20379;-79
2021/03/10 03:14:45;;;;;;;;;;;24.90;98.80;;;;;;4994530;28;19958;-76
2021/03/10 03:17:13;;;;;;;;;;;24.90;99.60;;;;;;4994223;28;20012;-81
2021/03/10 03:19:40;;;;;;;;;;;24.90;99.00;;;;;;4993952;28;20348;-80
2021/03/10 03:22:10;;;;;;;;;;;24.90;99.50;;;;;;4994692;28;20419;-88
2021/03/10 03:24:37;;;;;;;;;;;24.80;99.80;;;;;;5021528;28;20368;-81
2021/03/10 03:27:05;;;;;;;;;;;24.70;99.90;;;;;;4993994;28;19914;-84
2021/03/10 03:29:33;;;;;;;;;;;24.70;99.90;;;;;;4995454;28;19928;-78
2021/03/10 03:32:00;;;;;;;;;;;24.60;99.90;;;;;;4976787;28;20284;-81
2021/03/10 03:34:27;;;;;;;;;;;24.50;99.90;;;;;;4994056;28;20012;-87
2021/03/10 03:36:54;;;;;;;;;;;24.50;99.90;;;;;;4992507;28;19920;-83
2021/03/10 03:39:21;;;;;;;;;;;24.30;99.90;;;;;;4994720;28;19914;-77
2021/03/10 03:41:50;;;;;;;;;;;24.10;99.90;;;;;;4995951;28;19921;-86
2021/03/10 03:44:19;;;;;;;;;;;24.10;99.90;;;;;;4994169;28;19936;-82
2021/03/10 03:46:46;;;;;;;;;;;24.00;99.90;;;;;;4979117;28;19936;-84
2021/03/10 03:49:15;;;;;;;;;;;24.00;99.90;;;;;;5002356;28;19928;-86
2021/03/10 03:51:41;;;;;;;;;;;23.80;99.90;;;;;;4993465;28;20011;-87
2021/03/10 03:54:08;;;;;;;;;;;23.80;99.90;;;;;;4993613;28;19961;-85
2021/03/10 03:56:35;;;;;;;;;;;23.80;99.90;;;;;;4993844;28;20055;-82
2021/03/10 03:59:04;;;;;;;;;;;23.90;99.90;;;;;;4993019;28;19918;-85
2021/03/10 04:01:31;;;;;;;;;;;24.00;99.90;;;;;;4992682;28;19964;-81
2021/03/10 04:03:57;;;;;;;;;;;24.10;99.90;;;;;;4992384;28;19917;-82
2021/03/10 04:06:24;;;;;;;;;;;23.90;99.90;;;;;;4991761;28;19920;-82
2021/03/10 04:08:51;;;;;;;;;;;23.90;99.90;;;;;;4986459;28;20068;-77
2021/03/10 04:11:19;;;;;;;;;;;23.70;99.90;;;;;;4986080;28;19972;-79
2021/03/10 04:13:46;;;;;;;;;;;23.60;99.90;;;;;;4992838;28;19914;-82
2021/03/10 04:16:12;;;;;;;;;;;23.50;99.90;;;;;;4993091;28;19921;-78
2021/03/10 04:18:39;;;;;;;;;;;23.60;99.90;;;;;;4992727;28;20016;-76
2021/03/10 04:21:08;;;;;;;;;;;23.50;99.90;;;;;;4992781;28;19916;-77
2021/03/10 04:23:37;;;;;;;;;;;23.60;99.90;;;;;;4993453;28;19920;-77
2021/03/10 04:26:04;;;;;;;;;;;23.50;99.90;;;;;;4993696;28;19913;-79
2021/03/10 04:28:30;;;;;;;;;;;23.60;99.90;;;;;;4990528;28;19914;-76
2021/03/10 04:31:00;;;;;;;;;;;23.70;99.90;;;;;;4993173;28;20064;-77
2021/03/10 04:33:27;;;;;;;;;;;23.70;99.90;;;;;;4992882;28;19914;-76
2021/03/10 04:35:53;;;;;;;;;;;23.70;99.90;;;;;;4994877;28;19928;-76
2021/03/10 04:38:20;;;;;;;;;;;23.60;99.90;;;;;;4995227;28;19914;-76
2021/03/10 04:40:47;;;;;;;;;;;23.70;99.90;;;;;;4992224;28;19960;-79
2021/03/10 04:43:13;;;;;;;;;;;23.80;99.90;;;;;;4993481;28;20359;-75
2021/03/10 04:45:40;;;;;;;;;;;23.90;99.90;;;;;;4990314;28;20000;-76
2021/03/10 04:48:07;;;;;;;;;;;23.90;99.90;;;;;;4975340;28;19917;-76
2021/03/10 04:50:33;;;;;;;;;;;23.80;99.90;;;;;;4988153;28;20429;-76
2021/03/10 04:53:00;;;;;;;;;;;23.90;99.90;;;;;;4991407;28;19914;-83
2021/03/10 04:55:27;;;;;;;;;;;24.10;99.90;;;;;;5027094;28;19996;-82
2021/03/10 04:57:53;;;;;;;;;;;24.10;99.90;;;;;;5003089;28;19926;-78
2021/03/10 05:00:20;;;;;;;;;;;24.00;99.90;;;;;;4992978;28;19925;-79
2021/03/10 05:02:47;;;;;;;;;;;24.10;99.90;;;;;;4992252;28;20264;-85
2021/03/10 05:05:14;;;;;;;;;;;24.20;99.90;;;;;;4992521;28;19914;-82
2021/03/10 05:07:41;;;;;;;;;;;24.20;99.90;;;;;;4993019;28;20411;-85
2021/03/10 05:10:08;;;;;;;;;;;24.30;99.90;;;;;;4991834;28;19921;-85
2021/03/10 05:12:35;;;;;;;;;;;24.30;99.90;;;;;;4992425;28;19913;-84
2021/03/10 05:15:02;;;;;;;;;;;24.40;99.90;;;;;;4992124;28;19960;-81
2021/03/10 05:17:29;;;;;;;;;;;24.30;99.90;;;;;;4992374;28;19945;-78
2021/03/10 05:19:56;;;;;;;;;;;24.30;99.90;;;;;;4989668;28;20377;-78
2021/03/10 05:22:23;;;;;;;;;;;24.10;99.90;;;;;;4990838;28;19928;-83
2021/03/10 05:24:50;;;;;;;;;;;23.90;99.90;;;;;;4992352;28;19953;-81
2021/03/10 05:27:17;;;;;;;;;;;23.90;99.90;;;;;;4987296;28;20280;-86
2021/03/10 05:29:43;;;;;;;;;;;23.80;99.90;;;;;;4991655;28;19944;-83
2021/03/10 05:32:10;;;;;;;;;;;23.80;99.90;;;;;;4991049;28;19913;-82
2021/03/10 05:34:37;;;;;;;;;;;24.10;99.90;;;;;;4988963;28;20458;-88
2021/03/10 05:37:04;;;;;;;;;;;24.10;99.90;;;;;;4989527;28;20355;-78
2021/03/10 05:39:31;;;;;;;;;;;24.30;99.90;;;;;;4987240;28;19926;-78
2021/03/10 05:41:58;;;;;;;;;;;24.40;99.40;;;;;;4986273;28;20261;-85
2021/03/10 05:44:26;;;;;;;;;;;24.30;99.60;;;;;;4990352;28;20021;-83
2021/03/10 05:46:53;;;;;;;;;;;24.10;99.90;;;;;;4986271;28;20160;-78
2021/03/10 05:49:21;;;;;;;;;;;24.00;99.90;;;;;;4983741;28;19914;-80
2021/03/10 05:51:51;;;;;;;;;;;23.90;99.90;;;;;;4993021;28;19918;-86
2021/03/10 05:54:19;;;;;;;;;;;23.90;99.90;;;;;;4992700;28;19940;-87
2021/03/10 05:56:46;;;;;;;;;;;23.80;99.90;;;;;;4993275;28;19910;-82
2021/03/10 05:59:13;;;;;;;;;;;23.70;99.90;;;;;;4992894;28;19917;-82
2021/03/10 06:01:39;;;;;;;;;;;23.80;99.90;;;;;;4992985;28;19965;-79
2021/03/10 06:04:07;;;;;;;;;;;23.70;99.90;;;;;;4991694;28;19910;-78
2021/03/10 06:06:41;;;;;;;;;;;23.60;99.90;;;;;;5008115;28;19910;-84
2021/03/10 06:09:20;;;;;;;;;;;23.70;99.90;;;;;;4993345;28;19925;-81
2021/03/10 06:11:54;;;;;;;;;;;23.80;99.90;;;;;;4993081;28;19952;-84
2021/03/10 06:14:21;;;;;;;;;;;23.80;99.90;;;;;;4976012;28;20343;-85
2021/03/10 06:16:48;;;;;;;;;;;23.70;99.90;;;;;;4989125;28;19914;-83
2021/03/10 06:19:14;;;;;;;;;;;23.60;99.90;;;;;;4998444;28;19913;-81
2021/03/10 06:21:50;;;;;;;;;;;23.70;99.90;;;;;;5011590;28;19894;-78
2021/03/10 06:24:18;;;;;;;;;;;23.70;99.90;;;;;;4998670;28;20001;-80
2021/03/10 06:26:54;;;;;;;;;;;23.60;99.90;;;;;;4979413;28;20280;-78
2021/03/10 06:29:21;;;;;;;;;;;23.60;99.90;;;;;;4991691;28;19934;-84
2021/03/10 06:31:48;;;;;;;;;;;23.70;99.90;;;;;;4973689;28;19911;-81
2021/03/10 06:34:16;;;;;;;;;;;23.70;99.90;;;;;;5007077;28;19918;-77
2021/03/10 06:36:44;;;;;;;;;;;23.70;99.90;;;;;;5008502;28;19930;-80
2021/03/10 06:39:12;;;;;;;;;;;23.70;99.90;;;;;;4995132;28;19910;-79
2021/03/10 06:41:43;;;;;;;;;;;23.70;99.90;;;;;;4979272;28;20357;-80
2021/03/10 06:44:17;;;;;;;;;;;23.60;99.90;;;;;;4977518;28;19937;-88
2021/03/10 06:47:03;;;;;;;;;;;23.50;99.90;;;;;;5005247;28;19921;-81
2021/03/10 06:49:31;;;;;;;;;;;23.40;99.90;;;;;;4996411;28;20023;-86
2021/03/10 06:51:57;;;;;;;;;;;23.40;99.90;;;;;;4995130;28;20364;-82
2021/03/10 06:54:25;;;;;;;;;;;23.30;99.90;;;;;;4995597;28;20414;-80
2021/03/10 06:57:18;;;;;;;;;;;23.20;99.90;;;;;;4996166;28;19910;-89
2021/03/10 06:59:46;;;;;;;;;;;23.30;99.90;;;;;;4974570;28;19910;-88
2021/03/10 07:02:15;;;;;;;;;;;23.20;99.90;;;;;;4976741;28;19910;-85
2021/03/10 07:04:42;;;;;;;;;;;23.10;99.90;;;;;;4974891;28;20008;-77
2021/03/10 07:07:09;;;;;;;;;;;23.00;99.90;;;;;;4974899;28;19910;-78
2021/03/10 07:09:37;;;;;;;;;;;23.00;99.90;;;;;;4990882;28;19917;-82
2021/03/10 07:12:04;;;;;;;;;;;23.00;99.90;;;;;;4983772;28;20437;-81
2021/03/10 07:14:30;;;;;;;;;;;23.00;99.90;;;;;;4988289;28;19921;-84
2021/03/10 07:16:57;;;;;;;;;;;23.00;99.90;;;;;;4993074;28;19933;-77
2021/03/10 07:19:23;;;;;;;;;;;23.00;99.90;;;;;;4992275;28;19910;-77
2021/03/10 07:22:02;;;;;;;;;;;23.00;99.90;;;;;;4994001;28;19917;-76
2021/03/10 07:24:32;;;;;;;;;;;23.00;99.90;;;;;;4995413;28;19910;-79
2021/03/10 07:27:00;;;;;;;;;;;22.90;99.90;;;;;;4980942;28;19936;-77
2021/03/10 07:29:36;;;;;;;;;;;22.90;99.90;;;;;;4993184;28;19958;-78
2021/03/10 07:32:05;;;;;;;;;;;23.00;99.90;;;;;;4994164;28;19961;-80
2021/03/10 07:34:32;;;;;;;;;;;23.00;99.90;;;;;;4993564;28;19921;-86
2021/03/10 07:36:59;;;;;;;;;;;23.00;99.90;;;;;;4990922;28;19926;-82
2021/03/10 07:39:26;;;;;;;;;;;23.10;99.90;;;;;;4989792;28;19913;-83
2021/03/10 07:41:53;;;;;;;;;;;23.00;99.90;;;;;;4984434;28;19918;-81
2021/03/10 07:44:22;;;;;;;;;;;23.00;99.90;;;;;;4980058;28;19914;-88
2021/03/10 07:46:50;;;;;;;;;;;22.90;99.90;;;;;;4975570;28;20249;-85
2021/03/10 07:49:22;;;;;;;;;;;22.90;99.90;;;;;;4977071;28;19922;-78
2021/03/10 07:52:03;;;;;;;;;;;22.80;99.90;;;;;;4982643;28;19913;-78
2021/03/10 07:54:30;;;;;;;;;;;22.80;99.90;;;;;;4988040;28;20369;-78
2021/03/10 07:57:15;;;;;;;;;;;22.80;99.90;;;;;;4978728;28;19914;-79
2021/03/10 07:59:57;;;;;;;;;;;22.80;99.90;;;;;;4975308;28;19914;-77
2021/03/10 08:02:25;;;;;;;;;;;22.70;99.90;;;;;;4993683;28;20000;-77
2021/03/10 08:04:56;;;;;;;;;;;22.70;99.90;;;;;;4999774;28;19968;-77
2021/03/10 08:07:26;;;;;;;;;;;22.60;99.90;;;;;;5000328;28;19913;-77
2021/03/10 08:09:53;;;;;;;;;;;22.70;99.90;;;;;;4998249;28;20375;-78
2021/03/10 08:12:20;;;;;;;;;;;22.70;99.90;;;;;;4994154;28;19910;-85
2021/03/10 08:14:48;;;;;;;;;;;22.60;99.90;;;;;;4990287;28;19914;-79
2021/03/10 08:17:21;;;;;;;;;;;22.60;99.90;;;;;;4994802;28;19913;-78
2021/03/10 08:20:06;;;;;;;;;;;22.60;99.90;;;;;;4993193;28;20005;-82
2021/03/10 08:22:33;;;;;;;;;;;22.60;99.90;;;;;;4994156;28;20331;-84
2021/03/10 08:25:00;;;;;;;;;;;22.60;99.90;;;;;;4993703;28;20364;-81
2021/03/10 08:27:36;;;;;;;;;;;22.70;99.90;;;;;;4994956;28;20380;-79
2021/03/10 08:30:04;;;;;;;;;;;22.70;99.90;;;;;;4994780;28;19936;-81
2021/03/10 08:32:35;;;;;;;;;;;22.70;99.90;;;;;;4979275;28;19914;-83
2021/03/10 08:35:08;;;;;;;;;;;22.70;99.90;;;;;;4977195;28;19922;-83
2021/03/10 08:37:34;;;;;;;;;;;22.70;99.90;;;;;;4990476;28;20308;-81
2021/03/10 08:40:01;;;;;;;;;;;22.70;99.90;;;;;;4993454;28;19918;-84
2021/03/10 08:42:28;;;;;;;;;;;22.70;99.90;;;;;;4993588;28;19933;-82
2021/03/10 08:44:55;;;;;;;;;;;22.70;99.90;;;;;;4992865;28;20289;-81
2021/03/10 08:47:23;;;;;;;;;;;22.70;99.90;;;;;;4991569;28;20356;-84
2021/03/10 08:49:52;;;;;;;;;;;22.70;99.90;;;;;;4988183;28;20009;-81
2021/03/10 08:52:18;;;;;;;;;;;22.70;99.90;;;;;;4993763;28;19913;-79
2021/03/10 08:54:46;;;;;;;;;;;22.70;99.90;;;;;;4993655;28;19949;-83
2021/03/10 08:57:13;;;;;;;;;;;22.70;99.90;;;;;;4980445;28;19922;-82
2021/03/10 08:59:40;;;;;;;;;;;22.70;99.90;;;;;;4983385;28;19918;-82
2021/03/10 09:02:07;;;;;;;;;;;22.70;99.90;;;;;;4988384;28;20347;-80
2021/03/10 09:04:34;;;;;;;;;;;22.70;99.90;;;;;;4987809;28;19961;-82
2021/03/10 09:07:01;;;;;;;;;;;22.70;99.90;;;;;;4986366;28;20257;-77
2021/03/10 09:09:28;;;;;;;;;;;22.70;99.90;;;;;;4992344;28;19926;-78
2021/03/10 09:11:56;;;;;;;;;;;22.70;99.90;;;;;;4992674;28;20016;-82
2021/03/10 09:14:23;;;;;;;;;;;22.70;99.90;;;;;;4993158;28;19921;-82
2021/03/10 09:16:59;;;;;;;;;;;22.80;99.90;;;;;;4987552;28;19914;-81
2021/03/10 09:19:29;;;;;;;;;;;22.70;99.90;;;;;;4982150;28;19921;-80
2021/03/10 09:22:16;;;;;;;;;;;22.80;99.90;;;;;;4980506;28;20311;-84
2021/03/10 09:24:59;;;;;;;;;;;22.90;99.90;;;;;;4984574;28;20016;-86
2021/03/10 09:27:27;;;;;;;;;;;22.80;99.90;;;;;;4981659;28;19921;-82
2021/03/10 09:29:55;;;;;;;;;;;22.80;99.90;;;;;;4983949;28;19992;-82
2021/03/10 09:32:22;;;;;;;;;;;22.80;99.90;;;;;;4981594;28;20001;-82
2021/03/10 09:34:53;;;;;;;;;;;22.80;99.90;;;;;;4982393;28;19922;-80
2021/03/10 09:37:24;;;;;;;;;;;22.80;99.90;;;;;;4986664;28;19914;-81
2021/03/10 09:39:52;;;;;;;;;;;22.80;99.90;;;;;;4984605;28;19968;-81
2021/03/10 09:42:19;;;;;;;;;;;22.80;99.90;;;;;;4980821;28;19922;-81
2021/03/10 09:44:51;;;;;;;;;;;22.80;99.90;;;;;;4982588;28;19924;-81
2021/03/10 09:47:19;;;;;;;;;;;22.90;99.90;;;;;;4991002;28;19953;-82
2021/03/10 09:49:50;;;;;;;;;;;22.80;99.90;;;;;;4990843;28;19918;-82
2021/03/10 09:52:17;;;;;;;;;;;22.80;99.90;;;;;;4996557;28;19914;-87
2021/03/10 09:54:51;;;;;;;;;;;22.70;99.90;;;;;;4993530;28;20410;-83
2021/03/10 09:57:24;;;;;;;;;;;22.70;99.90;;;;;;4992390;28;20055;-82
2021/03/10 09:59:51;;;;;;;;;;;22.60;99.90;;;;;;4979776;28;19968;-84
2021/03/10 10:02:18;;;;;;;;;;;22.60;99.90;;;;;;4991948;28;19914;-79
2021/03/10 10:04:50;;;;;;;;;;;22.60;99.90;;;;;;5002319;28;19922;-78
2021/03/10 10:07:17;;;;;;;;;;;22.60;99.90;;;;;;4993027;28;19921;-78
2021/03/10 10:09:43;;;;;;;;;;;22.70;99.90;;;;;;4996108;28;20020;-83
2021/03/10 10:12:10;;;;;;;;;;;22.70;99.90;;;;;;4997115;28;19921;-81
2021/03/10 10:14:37;;;;;;;;;;;22.70;99.90;;;;;;4995183;28;20380;-83
2021/03/10 10:17:04;;;;;;;;;;;22.60;99.90;;;;;;4996928;28;20352;-78
2021/03/10 10:20:13;;;;;;;;;;;22.60;99.90;;;;;;4995895;28;20020;-76
2021/03/10 10:22:39;;;;;;;;;;;22.60;99.90;;;;;;4969148;28;20021;-81
2021/03/10 10:25:07;;;;;;;;;;;22.50;99.90;;;;;;4995034;28;19920;-83
2021/03/10 10:27:34;;;;;;;;;;;22.40;99.90;;;;;;4997966;28;19910;-77
2021/03/10 10:30:01;;;;;;;;;;;22.20;99.90;;;;;;4996216;28;19925;-77
2021/03/10 10:32:32;;;;;;;;;;;21.90;99.90;;;;;;4996068;28;19945;-78
2021/03/10 10:34:58;;;;;;;;;;;21.90;99.90;;;;;;4988908;28;19926;-81
2021/03/10 10:37:25;;;;;;;;;;;21.80;99.90;;;;;;4984891;28;20001;-82
2021/03/10 10:39:52;;;;;;;;;;;21.70;99.90;;;;;;4988411;28;19921;-79
2021/03/10 10:42:19;;;;;;;;;;;21.70;99.90;;;;;;4994182;28;19964;-78
2021/03/10 10:44:45;;;;;;;;;;;21.80;99.90;;;;;;4992706;28;19961;-83
2021/03/10 10:47:12;;;;;;;;;;;21.80;99.90;;;;;;4992838;28;20578;-79
2021/03/10 10:49:39;;;;;;;;;;;21.80;99.90;;;;;;4993038;28;19918;-79
2021/03/10 10:52:05;;;;;;;;;;;21.90;99.90;;;;;;4993780;28;20416;-83
2021/03/10 10:54:32;;;;;;;;;;;22.00;99.90;;;;;;4994059;28;19920;-80
2021/03/10 10:57:03;;;;;;;;;;;22.00;99.90;;;;;;4992738;28;19918;-83
2021/03/10 10:59:30;;;;;;;;;;;22.10;99.90;;;;;;4973534;28;19944;-82
2021/03/10 11:01:56;;;;;;;;;;;22.20;99.90;;;;;;4979055;28;19964;-82
2021/03/10 11:04:23;;;;;;;;;;;22.20;99.90;;;;;;4992138;28;20343;-78
2021/03/10 11:06:50;;;;;;;;;;;22.20;99.90;;;;;;4993590;28;19914;-78
2021/03/10 11:09:16;;;;;;;;;;;22.30;99.90;;;;;;4992227;28;19918;-83
2021/03/10 11:11:43;;;;;;;;;;;22.30;99.90;;;;;;4992583;28;19972;-79
2021/03/10 11:14:10;;;;;;;;;;;22.40;99.90;;;;;;4993132;28;19910;-82
2021/03/10 11:16:38;;;;;;;;;;;22.40;99.90;;;;;;4992691;28;20156;-81
2021/03/10 11:19:04;;;;;;;;;;;22.30;99.90;;;;;;4991350;28;19933;-80
2021/03/10 11:21:31;;;;;;;;;;;22.40;99.90;;;;;;4993209;28;19969;-83
2021/03/10 11:23:57;;;;;;;;;;;22.40;99.90;;;;;;4993028;28;19914;-82
2021/03/10 11:26:24;;;;;;;;;;;22.30;99.90;;;;;;4978017;28;19921;-84
2021/03/10 11:28:51;;;;;;;;;;;22.30;99.90;;;;;;4993131;28;20016;-76
2021/03/10 11:31:17;;;;;;;;;;;22.30;99.90;;;;;;4995011;28;19918;-75
2021/03/10 11:33:44;;;;;;;;;;;22.30;99.90;;;;;;4994523;28;19921;-77
2021/03/10 11:36:11;;;;;;;;;;;22.30;99.90;;;;;;4982202;28;19969;-78
2021/03/10 11:38:39;;;;;;;;;;;22.30;99.90;;;;;;4973595;28;20285;-78
2021/03/10 11:41:06;;;;;;;;;;;22.30;99.90;;;;;;4993406;28;19913;-81
2021/03/10 11:43:33;;;;;;;;;;;22.30;99.90;;;;;;4992879;28;20012;-81
2021/03/10 11:45:59;;;;;;;;;;;22.30;99.90;;;;;;4992973;28;19918;-80
2021/03/10 11:48:26;;;;;;;;;;;22.30;99.90;;;;;;4993349;28;20376;-79
2021/03/10 11:50:53;;;;;;;;;;;22.30;99.90;;;;;;4992877;28;19929;-79
2021/03/10 11:53:19;;;;;;;;;;;22.30;99.90;;;;;;4993771;28;20004;-80
2021/03/10 11:55:48;;;;;;;;;;;22.30;99.90;;;;;;4993057;28;19910;-80
2021/03/10 11:58:15;;;;;;;;;;;22.20;99.90;;;;;;4990232;28;19940;-78
2021/03/10 12:00:42;;;;;;;;;;;22.30;99.90;;;;;;4984321;28;20118;-80
2021/03/10 12:03:09;;;;;;;;;;;22.30;99.90;;;;;;4978172;28;19914;-81
2021/03/10 12:05:35;;;;;;;;;;;22.30;99.90;;;;;;4992923;28;19913;-78
2021/03/10 12:08:04;;;;;;;;;;;22.30;99.90;;;;;;4993224;28;19913;-77
2021/03/10 12:10:31;;;;;;;;;;;22.40;99.90;;;;;;4991761;28;19930;-81
2021/03/10 12:12:58;;;;;;;;;;;22.40;99.90;;;;;;4992578;28;19917;-80
2021/03/10 12:15:25;;;;;;;;;;;22.40;99.90;;;;;;4992991;28;19916;-81
2021/03/10 12:17:51;;;;;;;;;;;22.40;99.90;;;;;;4990544;28;19915;-79
2021/03/10 12:20:18;;;;;;;;;;;22.40;99.90;;;;;;4988655;28;20311;-80
2021/03/10 12:22:45;;;;;;;;;;;22.40;99.90;;;;;;4991824;28;19914;-79
2021/03/10 12:25:12;;;;;;;;;;;22.40;99.90;;;;;;4992380;28;19916;-79
2021/03/10 12:27:38;;;;;;;;;;;22.40;99.90;;;;;;5006420;28;20008;-79
2021/03/10 12:30:06;;;;;;;;;;;22.30;99.90;;;;;;4990735;28;19941;-79
2021/03/10 12:32:35;;;;;;;;;;;22.30;99.90;;;;;;4991234;28;19920;-79
2021/03/10 12:35:18;;;;;;;;;;;22.30;99.90;;;;;;4988001;28;20289;-77
2021/03/10 12:37:45;;;;;;;;;;;22.40;99.90;;;;;;4988301;28;19933;-81
2021/03/10 12:40:12;;;;;;;;;;;22.30;99.90;;;;;;4984840;28;19964;-81
2021/03/10 12:42:42;;;;;;;;;;;22.40;99.90;;;;;;4991123;28;19917;-80
2021/03/10 12:45:09;;;;;;;;;;;22.30;99.90;;;;;;4991560;28;19910;-78
2021/03/10 12:47:36;;;;;;;;;;;22.30;99.90;;;;;;4990809;28;19971;-76
2021/03/10 12:50:03;;;;;;;;;;;22.20;99.90;;;;;;4987499;28;19926;-80
2021/03/10 12:52:29;;;;;;;;;;;22.10;99.90;;;;;;4991475;28;20013;-80
2021/03/10 12:54:57;;;;;;;;;;;21.80;99.90;;;;;;4990381;28;19972;-77
2021/03/10 12:57:24;;;;;;;;;;;21.60;99.90;;;;;;4978409;28;20352;-78
2021/03/10 12:59:50;;;;;;;;;;;21.50;99.90;;;;;;4991216;28;19914;-80
2021/03/10 13:02:17;;;;;;;;;;;21.30;99.90;;;;;;4990109;28;19933;-80
2021/03/10 13:04:44;;;;;;;;;;;21.00;99.90;;;;;;4985293;28;19925;-80
2021/03/10 13:07:11;;;;;;;;;;;21.00;99.90;;;;;;4987658;28;19914;-79
2021/03/10 13:09:38;;;;;;;;;;;20.90;99.90;;;;;;4990507;28;20303;-76
2021/03/10 13:12:05;;;;;;;;;;;20.90;99.90;;;;;;4985910;28;19913;-78
2021/03/10 13:14:31;;;;;;;;;;;20.80;99.90;;;;;;4990554;28;19921;-79
2021/03/10 13:16:58;;;;;;;;;;;20.80;99.90;;;;;;4986369;28;19917;-78
2021/03/10 13:19:25;;;;;;;;;;;20.80;99.90;;;;;;4980020;28;19993;-79
2021/03/10 13:21:52;;;;;;;;;;;20.80;99.90;;;;;;4978905;28;19921;-78
2021/03/10 13:24:19;;;;;;;;;;;20.90;99.90;;;;;;4995847;28;19956;-79
2021/03/10 13:26:46;;;;;;;;;;;20.90;99.90;;;;;;4990361;28;19925;-79
2021/03/10 13:29:12;;;;;;;;;;;21.00;99.90;;;;;;4989471;28;20009;-79
2021/03/10 13:31:39;;;;;;;;;;;21.10;99.90;;;;;;4990025;28;19953;-77
2021/03/10 13:34:07;;;;;;;;;;;21.10;99.90;;;;;;4981122;28;20284;-74
2021/03/10 13:36:34;;;;;;;;;;;21.20;99.90;;;;;;4986347;28;19918;-79
2021/03/10 13:39:01;;;;;;;;;;;21.20;99.90;;;;;;4984847;28;19915;-75
2021/03/10 13:41:27;;;;;;;;;;;21.20;99.90;;;;;;4984894;28;19918;-76
2021/03/10 13:43:55;;;;;;;;;;;21.20;99.90;;;;;;4991329;28;19921;-79
2021/03/10 13:46:22;;;;;;;;;;;21.10;99.90;;;;;;4988816;28;19914;-79
2021/03/10 13:48:48;;;;;;;;;;;20.90;99.90;;;;;;4991714;28;19918;-76
2021/03/10 13:51:15;;;;;;;;;;;20.80;99.90;;;;;;4981687;28;19917;-76
2021/03/10 13:53:42;;;;;;;;;;;20.70;99.90;;;;;;4991789;28;19914;-76
2021/03/10 13:56:08;;;;;;;;;;;20.70;99.90;;;;;;4989061;28;20000;-75
2021/03/10 13:58:35;;;;;;;;;;;20.60;99.90;;;;;;4993647;28;20353;-75
2021/03/10 14:01:04;;;;;;;;;;;20.60;99.90;;;;;;4975283;28;20020;-75
2021/03/10 14:03:31;;;;;;;;;;;20.50;99.90;;;;;;4992629;28;19928;-80
2021/03/10 14:05:57;;;;;;;;;;;20.50;99.90;;;;;;4993744;28;20012;-77
2021/03/10 14:08:24;;;;;;;;;;;20.50;99.90;;;;;;4988611;28;19917;-80
2021/03/10 14:10:51;;;;;;;;;;;20.50;99.90;;;;;;4994123;28;19917;-79
2021/03/10 14:13:18;;;;;;;;;;;20.60;99.90;;;;;;4994081;28;19983;-80
2021/03/10 14:15:46;;;;;;;;;;;20.60;99.90;;;;;;4992946;28;19934;-80
2021/03/10 14:18:13;;;;;;;;;;;20.70;99.90;;;;;;4993983;28;19913;-78
2021/03/10 14:20:39;;;;;;;;;;;20.70;99.90;;;;;;4992033;28;19956;-76
2021/03/10 14:23:06;;;;;;;;;;;20.80;99.90;;;;;;4993991;28;19918;-79
2021/03/10 14:25:33;;;;;;;;;;;20.90;99.90;;;;;;4993784;28;19930;-76
2021/03/10 14:27:59;;;;;;;;;;;20.90;99.90;;;;;;4993729;28;20369;-78